createdAt,value
2022-08-11T00:02:31.850Z,67.64
2022-08-11T00:05:07.038Z,67.96
2022-08-11T00:07:36.585Z,67.49
2022-08-11T00:10:05.454Z,67.82
2022-08-11T00:12:33.926Z,68.56
2022-08-11T00:15:03.832Z,66.37
2022-08-11T00:17:35.521Z,68.96
2022-08-11T00:20:11.602Z,68.29
2022-08-11T00:22:48.653Z,69.30
2022-08-11T00:25:19.208Z,68.67
2022-08-11T00:27:48.994Z,67.84
2022-08-11T00:30:18.245Z,69.18
2022-08-11T00:32:56.203Z,67.03
2022-08-11T00:35:54.469Z,68.22
2022-08-11T00:38:25.776Z,68.22
2022-08-11T00:41:00.532Z,68.10
2022-08-11T00:43:48.355Z,67.58
2022-08-11T00:46:26.431Z,68.25
2022-08-11T00:49:11.876Z,68.25
2022-08-11T00:52:04.073Z,67.43
2022-08-11T00:54:56.503Z,67.05
2022-08-11T00:57:47.024Z,69.26
2022-08-11T01:00:17.068Z,66.41
2022-08-11T01:03:18.071Z,67.32
2022-08-11T01:06:15.572Z,69.71
2022-08-11T01:09:22.186Z,70.68
2022-08-11T01:12:19.855Z,69.45
2022-08-11T01:15:28.357Z,70.03
2022-08-11T01:18:37.634Z,70.18
2022-08-11T01:21:52.580Z,69.62
2022-08-11T01:25:02.731Z,74.11
2022-08-11T01:28:06.644Z,72.24
2022-08-11T01:31:01.275Z,72.64
2022-08-11T01:34:02.410Z,71.04
2022-08-11T01:37:11.795Z,71.55
2022-08-11T01:40:25.921Z,72.99
2022-08-11T01:44:12.672Z,71.32
2022-08-11T01:46:47.706Z,72.61
2022-08-11T01:50:01.034Z,72.08
2022-08-11T01:52:20.362Z,73.89
2022-08-11T01:55:13.781Z,71.03
2022-08-11T01:57:48.533Z,74.02
2022-08-11T02:00:20.383Z,73.94
2022-08-11T02:02:57.205Z,75.77
2022-08-11T02:05:36.703Z,72.13
2022-08-11T02:08:12.994Z,70.93
2022-08-11T02:11:05.236Z,73.38
2022-08-11T02:13:43.467Z,72.54
2022-08-11T02:16:22.336Z,72.38
2022-08-11T02:19:12.687Z,71.86
2022-08-11T02:22:05.559Z,74.05
2022-08-11T02:24:41.097Z,74.20
2022-08-11T02:27:19.658Z,73.11
2022-08-11T02:29:56.570Z,72.58
2022-08-11T02:32:48.238Z,73.03
2022-08-11T02:35:21.042Z,71.86
2022-08-11T02:38:01.687Z,72.72
2022-08-11T02:40:39.434Z,72.91
2022-08-11T02:43:20.924Z,71.89
2022-08-11T02:46:02.157Z,73.28
2022-08-11T02:49:02.381Z,72.58
2022-08-11T02:51:40.694Z,75.96
2022-08-11T02:54:17.040Z,75.34
2022-08-11T02:56:53.322Z,73.72
2022-08-11T02:59:47.167Z,72.91
2022-08-11T03:02:27.847Z,71.93
2022-08-11T03:05:03.200Z,71.66
2022-08-11T03:07:37.358Z,72.61
2022-08-11T03:10:14.329Z,75.16
2022-08-11T03:13:07.985Z,73.37
2022-08-11T03:16:01.292Z,74.04
2022-08-11T03:18:36.148Z,72.96
2022-08-11T03:21:11.395Z,72.33
2022-08-11T03:23:49.563Z,74.73
2022-08-11T03:26:29.191Z,75.54
2022-08-11T03:29:06.199Z,72.58
2022-08-11T03:31:38.647Z,73.87
2022-08-11T03:34:09.257Z,74.34
2022-08-11T03:37:34.873Z,73.18
2022-08-11T03:40:37.441Z,72.16
2022-08-11T03:43:20.105Z,75.97
2022-08-11T03:46:00.756Z,75.07
2022-08-11T03:48:41.763Z,73.46
2022-08-11T03:51:19.697Z,75.93
2022-08-11T03:54:04.968Z,76.92
2022-08-11T03:57:22.374Z,75.32
2022-08-11T04:00:23.195Z,73.68
2022-08-11T04:03:31.079Z,71.54
2022-08-11T04:06:38.850Z,75.59
2022-08-11T04:09:51.568Z,74.25
2022-08-11T04:13:01.184Z,74.99
2022-08-11T04:16:11.052Z,75.63
2022-08-11T04:19:16.617Z,74.86
2022-08-11T04:22:25.230Z,76.17
2022-08-11T04:25:13.619Z,74.14
2022-08-11T04:28:28.637Z,76.34
2022-08-11T04:31:08.376Z,77.72
2022-08-11T04:33:57.100Z,75.58
2022-08-11T04:37:22.895Z,75.49
2022-08-11T04:40:13.654Z,77.38
2022-08-11T04:43:18.306Z,77.60
2022-08-11T04:46:10.475Z,77.86
2022-08-11T04:49:40.493Z,74.47
2022-08-11T04:53:07.921Z,75.02
2022-08-11T04:56:22.426Z,77.76
2022-08-11T04:59:38.865Z,79.87
2022-08-11T05:02:41.101Z,75.58
2022-08-11T05:05:41.592Z,76.84
2022-08-11T05:09:16.989Z,77.48
2022-08-11T05:12:03.528Z,76.98
2022-08-11T05:14:53.689Z,75.95
2022-08-11T05:17:53.246Z,76.86
2022-08-11T05:20:40.353Z,80.14
2022-08-11T05:23:28.739Z,78.51
2022-08-11T05:26:47.077Z,77.01
2022-08-11T05:29:42.529Z,76.58
2022-08-11T05:32:31.967Z,77.27
2022-08-11T05:35:03.752Z,78.36
2022-08-11T05:37:42.361Z,77.53
2022-08-11T05:40:31.959Z,76.52
2022-08-11T05:43:21.383Z,75.91
2022-08-11T05:46:18.639Z,74.70
2022-08-11T05:49:05.301Z,78.29
2022-08-11T05:51:55.449Z,78.53
2022-08-11T05:54:46.194Z,78.76
2022-08-11T05:57:48.536Z,79.04
2022-08-11T06:00:11.876Z,81.64
2022-08-11T06:02:45.589Z,77.94
2022-08-11T06:05:14.366Z,81.83
2022-08-11T06:07:49.327Z,80.18
2022-08-11T06:10:28.786Z,80.14
2022-08-11T06:13:01.180Z,77.78
2022-08-11T06:15:31.184Z,82.87
2022-08-11T06:18:02.906Z,86.59
2022-08-11T06:20:37.491Z,86.21
2022-08-11T06:23:08.638Z,84.95
2022-08-11T06:25:38.355Z,84.17
2022-08-11T06:28:09.012Z,84.83
2022-08-11T06:30:42.916Z,85.48
2022-08-11T06:33:16.299Z,81.70
2022-08-11T06:35:52.943Z,85.18
2022-08-11T06:38:39.301Z,81.18
2022-08-11T06:41:34.586Z,84.46
2022-08-11T06:44:17.837Z,83.42
2022-08-11T06:46:48.636Z,84.26
2022-08-11T06:49:36.730Z,81.68
2022-08-11T06:52:07.377Z,82.87
2022-08-11T06:55:05.614Z,82.98
2022-08-11T06:57:53.649Z,81.92
2022-08-11T07:00:33.074Z,85.69
2022-08-11T07:03:08.786Z,83.86
2022-08-11T07:05:51.046Z,83.96
2022-08-11T07:09:16.625Z,81.80
2022-08-11T07:12:18.520Z,83.16
2022-08-11T07:15:09.764Z,81.33
2022-08-11T07:17:43.198Z,81.11
2022-08-11T07:20:31.707Z,80.78
2022-08-11T07:23:36.653Z,81.02
2022-08-11T07:26:22.699Z,79.16
2022-08-11T07:28:59.011Z,79.94
2022-08-11T07:31:33.431Z,78.60
2022-08-11T07:34:17.466Z,77.72
2022-08-11T07:36:51.412Z,76.66
2022-08-11T07:39:24.137Z,75.42
2022-08-11T07:41:57.246Z,74.81
2022-08-11T07:44:34.450Z,75.45
2022-08-11T07:47:22.207Z,74.44
2022-08-11T07:50:11.648Z,75.43
2022-08-11T07:52:40.735Z,72.42
2022-08-11T07:55:19.698Z,68.83
2022-08-11T07:58:15.974Z,68.90
2022-08-11T08:01:10.544Z,70.22
2022-08-11T08:04:02.702Z,70.54
2022-08-11T08:06:51.798Z,67.38
2022-08-11T08:09:39.734Z,64.78
2022-08-11T08:12:27.772Z,64.71
2022-08-11T08:15:15.072Z,65.09
2022-08-11T08:18:09.106Z,63.30
2022-08-11T08:20:49.709Z,65.73
2022-08-11T08:23:33.306Z,64.58
2022-08-11T08:26:04.434Z,64.26
2022-08-11T08:28:35.044Z,64.60
2022-08-11T08:31:02.956Z,63.60
2022-08-11T08:33:33.597Z,63.05
2022-08-11T08:36:15.497Z,62.65
2022-08-11T08:38:49.618Z,59.32
2022-08-11T08:41:23.325Z,61.95
2022-08-11T08:43:59.873Z,59.79
2022-08-11T08:46:47.337Z,60.10
2022-08-11T08:49:19.326Z,59.01
2022-08-11T08:52:00.855Z,57.84
2022-08-11T08:54:45.663Z,59.50
2022-08-11T08:57:14.783Z,55.36
2022-08-11T08:59:51.348Z,56.20
2022-08-11T09:02:33.571Z,55.31
2022-08-11T09:05:04.138Z,55.59
2022-08-11T09:07:39.393Z,54.84
2022-08-11T09:10:09.901Z,55.60
2022-08-11T09:12:40.773Z,54.00
2022-08-11T09:15:12.791Z,54.62
2022-08-11T09:17:44.668Z,53.72
2022-08-11T09:20:15.909Z,50.46
2022-08-11T09:23:41.674Z,51.25
2022-08-11T09:26:11.294Z,51.94
2022-08-11T09:28:39.870Z,50.08
2022-08-11T09:31:11.015Z,51.72
2022-08-11T09:33:40.627Z,50.18
2022-08-11T09:36:30.919Z,49.19
2022-08-11T09:39:18.961Z,46.95
2022-08-11T09:42:00.780Z,46.65
2022-08-11T09:44:49.720Z,47.21
2022-08-11T09:47:24.756Z,45.72
2022-08-11T09:50:00.119Z,47.05
2022-08-11T09:52:31.996Z,45.47
2022-08-11T09:55:01.116Z,47.44
2022-08-11T09:57:47.084Z,46.89
2022-08-11T10:00:16.584Z,47.11
2022-08-11T10:02:49.040Z,45.63
2022-08-11T10:05:37.659Z,45.43
2022-08-11T10:08:06.950Z,43.67
2022-08-11T10:10:38.879Z,45.17
2022-08-11T10:13:44.023Z,44.57
2022-08-11T10:16:16.328Z,43.94
2022-08-11T10:18:53.361Z,44.09
2022-08-11T10:21:29.231Z,44.02
2022-08-11T10:24:19.537Z,42.71
2022-08-11T10:26:55.427Z,43.03
2022-08-11T10:29:45.223Z,43.03
2022-08-11T10:32:57.423Z,42.98
2022-08-11T10:35:28.795Z,41.90
2022-08-11T10:38:06.716Z,42.05
2022-08-11T10:40:40.100Z,41.36
2022-08-11T10:43:56.770Z,40.06
2022-08-11T10:46:30.336Z,39.71
2022-08-11T10:49:00.090Z,39.04
2022-08-11T10:51:50.561Z,39.23
2022-08-11T10:54:39.831Z,38.17
2022-08-11T10:57:26.122Z,39.29
2022-08-11T10:59:57.672Z,37.64
2022-08-11T11:02:27.416Z,35.77
2022-08-11T11:05:02.734Z,36.52
2022-08-11T11:07:44.196Z,36.22
2022-08-11T11:10:12.786Z,35.95
2022-08-11T11:13:02.430Z,34.93
2022-08-11T11:15:50.232Z,33.97
2022-08-11T11:18:23.614Z,33.47
2022-08-11T11:20:57.792Z,33.76
2022-08-11T11:23:33.898Z,33.15
2022-08-11T11:26:32.592Z,34.29
2022-08-11T11:29:12.106Z,33.65
2022-08-11T11:31:58.543Z,33.16
2022-08-11T11:34:47.866Z,33.35
2022-08-11T11:37:22.111Z,31.77
2022-08-11T11:39:52.258Z,32.55
2022-08-11T11:42:22.178Z,31.64
2022-08-11T11:44:54.151Z,30.21
2022-08-11T11:47:24.923Z,30.37
2022-08-11T11:49:54.403Z,28.79
2022-08-11T11:52:23.802Z,29.20
2022-08-11T11:54:56.525Z,28.46
2022-08-11T11:57:59.295Z,28.97
2022-08-11T12:00:49.183Z,28.30
2022-08-11T12:03:18.348Z,25.95
2022-08-11T12:05:47.743Z,28.38
2022-08-11T12:08:17.416Z,26.47
2022-08-11T12:10:49.255Z,25.98
2022-08-11T12:13:38.741Z,24.83
2022-08-11T12:16:33.268Z,26.65
2022-08-11T12:19:00.029Z,27.52
2022-08-11T12:21:29.834Z,25.73
2022-08-11T12:24:34.008Z,26.04
2022-08-11T12:27:24.094Z,26.10
2022-08-11T12:29:56.850Z,24.32
2022-08-11T12:32:28.217Z,25.62
2022-08-11T12:34:58.040Z,23.46
2022-08-11T12:37:31.455Z,24.86
2022-08-11T12:40:43.711Z,24.79
2022-08-11T12:43:38.338Z,25.69
2022-08-11T12:46:15.514Z,26.00
2022-08-11T12:49:04.333Z,25.76
2022-08-11T12:52:13.866Z,25.89
2022-08-11T12:54:57.310Z,25.18
2022-08-11T12:57:45.539Z,25.96
2022-08-11T13:00:34.262Z,26.07
2022-08-11T13:03:21.761Z,26.85
2022-08-11T13:05:54.590Z,26.79
2022-08-11T13:08:25.157Z,27.90
2022-08-11T13:11:13.349Z,26.78
2022-08-11T13:13:54.824Z,27.72
2022-08-11T13:16:30.261Z,28.12
2022-08-11T13:19:01.329Z,27.97
2022-08-11T13:21:31.040Z,29.32
2022-08-11T13:24:03.115Z,28.31
2022-08-11T13:26:50.027Z,28.61
2022-08-11T13:29:47.386Z,28.35
2022-08-11T13:32:21.429Z,28.47
2022-08-11T13:34:50.152Z,28.39
2022-08-11T13:38:18.476Z,28.50
2022-08-11T13:40:12.361Z,28.38
2022-08-11T13:42:41.783Z,28.87
2022-08-11T13:45:11.606Z,28.62
2022-08-11T13:51:03.757Z,28.88
2022-08-11T13:53:33.397Z,28.51
2022-08-11T13:56:02.291Z,28.90
2022-08-11T13:58:40.048Z,28.73
2022-08-11T14:01:24.552Z,28.44
2022-08-11T14:04:29.848Z,28.70
2022-08-11T14:07:00.165Z,29.08
2022-08-11T14:09:31.235Z,28.81
2022-08-11T14:12:24.400Z,28.62
2022-08-11T14:15:07.579Z,28.45
2022-08-11T14:17:48.761Z,28.56
2022-08-11T14:20:38.213Z,28.76
2022-08-11T14:23:13.719Z,29.00
2022-08-11T14:26:03.810Z,28.65
2022-08-11T14:28:40.049Z,29.17
2022-08-11T14:31:13.123Z,28.67
2022-08-11T14:33:59.394Z,28.80
2022-08-11T14:36:33.965Z,29.42
2022-08-11T14:39:05.668Z,28.86
2022-08-11T14:42:10.513Z,29.29
2022-08-11T14:45:01.003Z,29.02
2022-08-11T14:47:31.815Z,28.51
2022-08-11T14:50:11.509Z,29.04
2022-08-11T14:52:49.869Z,28.95
2022-08-11T14:55:36.504Z,29.21
2022-08-11T14:58:06.455Z,31.25
2022-08-11T15:00:35.993Z,29.64
2022-08-11T15:03:11.164Z,30.52
2022-08-11T15:05:53.656Z,30.32
2022-08-11T15:08:47.249Z,30.08
2022-08-11T15:11:35.304Z,29.98
2022-08-11T15:14:06.863Z,30.78
2022-08-11T15:16:54.955Z,30.53
2022-08-11T15:19:23.169Z,31.18
2022-08-11T15:22:09.118Z,30.96
2022-08-11T15:24:38.726Z,30.53
2022-08-11T15:27:29.830Z,30.77
2022-08-11T15:30:29.892Z,30.94
2022-08-11T15:33:23.469Z,30.33
2022-08-11T15:36:10.747Z,30.70
2022-08-11T15:38:42.711Z,30.38
2022-08-11T15:41:34.359Z,30.20
2022-08-11T15:44:44.663Z,30.36
2022-08-11T15:47:15.535Z,30.39
2022-08-11T15:50:11.155Z,30.35
2022-08-11T15:52:49.423Z,30.02
2022-08-11T15:55:19.626Z,29.73
2022-08-11T15:58:09.545Z,30.11
2022-08-11T16:01:04.222Z,29.48
2022-08-11T16:04:05.976Z,30.37
2022-08-11T16:06:49.346Z,29.65
2022-08-11T16:09:23.578Z,29.32
2022-08-11T16:11:53.690Z,29.79
2022-08-11T16:14:42.921Z,29.92
2022-08-11T16:17:13.269Z,29.21
2022-08-11T16:19:42.483Z,29.60
2022-08-11T16:22:12.992Z,29.47
2022-08-11T16:27:05.986Z,29.75
2022-08-11T16:27:38.567Z,29.76
2022-08-11T16:30:10.435Z,29.13
2022-08-11T16:32:41.577Z,29.13
2022-08-11T16:35:30.635Z,29.01
2022-08-11T16:38:17.909Z,28.99
2022-08-11T16:40:48.047Z,28.70
2022-08-11T16:43:33.592Z,28.44
2022-08-11T16:46:22.801Z,29.17
2022-08-11T16:48:53.548Z,27.87
2022-08-11T16:51:23.344Z,27.68
2022-08-11T16:54:04.526Z,27.95
2022-08-11T16:56:39.124Z,27.03
2022-08-11T16:59:16.609Z,26.87
2022-08-11T17:01:54.110Z,25.43
2022-08-11T17:04:47.263Z,25.72
2022-08-11T17:07:42.365Z,24.86
2022-08-11T17:10:50.950Z,24.91
2022-08-11T17:13:27.182Z,24.90
2022-08-11T17:16:12.086Z,24.51
2022-08-11T17:18:47.125Z,24.31
2022-08-11T17:21:27.000Z,24.92
2022-08-11T17:23:58.965Z,24.85
2022-08-11T17:26:52.571Z,24.00
2022-08-11T17:29:24.649Z,23.88
2022-08-11T17:32:12.729Z,24.12
2022-08-11T17:35:03.014Z,25.13
2022-08-11T17:37:33.397Z,25.24
2022-08-11T17:40:06.220Z,25.38
2022-08-11T17:42:53.789Z,25.05
2022-08-11T17:45:41.442Z,26.07
2022-08-11T17:48:29.364Z,26.38
2022-08-11T17:51:03.039Z,27.21
2022-08-11T17:54:09.985Z,27.22
2022-08-11T17:56:58.999Z,28.38
2022-08-11T17:59:49.043Z,28.25
2022-08-11T18:02:36.856Z,28.69
2022-08-11T18:05:12.323Z,29.42
2022-08-11T18:08:03.861Z,29.69
2022-08-11T18:10:51.770Z,29.90
2022-08-11T18:13:41.712Z,30.38
2022-08-11T18:16:28.823Z,30.17
2022-08-11T18:19:15.174Z,30.85
2022-08-11T18:22:13.177Z,30.97
2022-08-11T18:25:07.139Z,30.57
2022-08-11T18:27:54.768Z,31.24
2022-08-11T18:30:41.914Z,31.10
2022-08-11T18:36:40.048Z,31.97
2022-08-11T18:39:30.874Z,32.67
2022-08-11T18:42:29.309Z,32.53
2022-08-11T18:45:19.927Z,32.83
2022-08-11T18:48:09.169Z,33.24
2022-08-11T18:51:00.627Z,33.23
2022-08-11T18:54:08.974Z,33.38
2022-08-11T18:56:55.048Z,34.09
2022-08-11T18:59:45.913Z,34.32
2022-08-11T19:02:31.906Z,36.67
2022-08-11T19:06:31.945Z,35.01
2022-08-11T19:08:28.497Z,35.00
2022-08-11T19:11:16.468Z,36.65
2022-08-11T19:14:07.082Z,36.59
2022-08-11T19:16:55.931Z,36.88
2022-08-11T19:19:47.719Z,36.33
2022-08-11T19:22:36.408Z,36.85
2022-08-11T19:25:25.781Z,36.76
2022-08-11T19:28:13.722Z,37.82
2022-08-11T19:31:00.985Z,36.39
2022-08-11T19:34:03.824Z,37.21
2022-08-11T19:36:57.142Z,37.30
2022-08-11T19:39:46.257Z,38.18
2022-08-11T19:42:33.526Z,38.32
2022-08-11T19:45:21.187Z,39.07
2022-08-11T19:48:30.743Z,38.76
2022-08-11T19:51:17.818Z,38.59
2022-08-11T19:54:05.067Z,38.81
2022-08-11T19:56:52.076Z,39.78
2022-08-11T19:59:39.444Z,39.06
2022-08-11T20:02:25.594Z,39.20
2022-08-11T20:05:11.788Z,39.58
2022-08-11T20:08:01.169Z,40.70
2022-08-11T20:10:49.761Z,40.27
2022-08-11T20:13:37.883Z,44.78
2022-08-11T20:16:31.150Z,45.16
2022-08-11T20:19:20.040Z,45.93
2022-08-11T20:22:13.930Z,45.77
2022-08-11T20:25:04.258Z,45.91
2022-08-11T20:27:55.530Z,45.04
2022-08-11T20:30:41.824Z,46.45
2022-08-11T20:33:28.396Z,46.77
2022-08-11T20:36:13.970Z,45.75
2022-08-11T20:39:00.418Z,45.96
2022-08-11T20:41:58.802Z,47.52
2022-08-11T20:44:48.938Z,44.74
2022-08-11T20:47:56.216Z,44.34
2022-08-11T20:50:45.901Z,44.20
2022-08-11T20:53:36.746Z,45.49
2022-08-11T20:56:28.649Z,46.28
2022-08-11T20:59:21.480Z,46.35
2022-08-11T21:02:10.051Z,46.53
2022-08-11T21:04:57.419Z,49.32
2022-08-11T21:07:55.569Z,45.72
2022-08-11T21:10:50.549Z,45.81
2022-08-11T21:13:39.512Z,49.42
2022-08-11T21:16:28.608Z,49.81
2022-08-11T21:19:54.453Z,49.34
2022-08-11T21:22:28.132Z,47.99
2022-08-11T21:25:16.452Z,46.04
2022-08-11T21:28:03.546Z,48.31
2022-08-11T21:30:51.442Z,47.04
2022-08-11T21:33:47.193Z,50.37
2022-08-11T21:36:34.187Z,49.18
2022-08-11T21:39:22.843Z,53.66
2022-08-11T21:42:12.395Z,49.16
2022-08-11T21:45:00.068Z,50.23
2022-08-11T21:47:46.596Z,50.18
2022-08-11T21:50:33.889Z,49.92
2022-08-11T21:53:19.825Z,50.94
2022-08-11T21:56:06.907Z,52.97
2022-08-11T21:58:52.823Z,52.29
2022-08-11T22:01:39.843Z,50.54
2022-08-11T22:04:26.081Z,52.50
2022-08-11T22:07:13.508Z,52.08
2022-08-11T22:09:59.328Z,48.78
2022-08-11T22:12:45.542Z,50.53
2022-08-11T22:15:31.451Z,53.88
2022-08-11T22:18:17.157Z,53.08
2022-08-11T22:21:03.977Z,53.22
2022-08-11T22:23:55.028Z,53.52
2022-08-11T22:26:41.970Z,52.18
2022-08-11T22:29:38.182Z,53.27
2022-08-11T22:32:38.395Z,51.14
2022-08-11T22:35:28.540Z,53.80
2022-08-11T22:38:16.158Z,53.61
2022-08-11T22:41:03.199Z,53.86
2022-08-11T22:43:48.733Z,52.78
2022-08-11T22:46:37.085Z,52.92
2022-08-11T22:49:24.326Z,53.92
2022-08-11T22:52:09.818Z,53.04
2022-08-11T22:54:56.513Z,54.29
2022-08-11T22:58:00.473Z,54.05
2022-08-11T23:00:47.696Z,53.33
2022-08-11T23:03:38.312Z,53.79
2022-08-11T23:06:26.058Z,52.77
2022-08-11T23:09:12.392Z,53.10
2022-08-11T23:12:06.058Z,54.18
2022-08-11T23:14:55.862Z,54.25
2022-08-11T23:17:41.939Z,55.25
2022-08-11T23:20:41.525Z,54.37
2022-08-11T23:23:36.476Z,55.78
2022-08-11T23:26:22.999Z,54.04
2022-08-11T23:29:08.407Z,55.77
2022-08-11T23:31:56.545Z,52.21
2022-08-11T23:35:04.302Z,52.73
2022-08-11T23:37:54.891Z,51.98
2022-08-11T23:40:40.951Z,52.26
2022-08-11T23:43:26.983Z,53.72
2022-08-11T23:46:12.519Z,51.95
2022-08-11T23:49:00.042Z,53.05
2022-08-11T23:51:47.803Z,51.79
2022-08-11T23:54:37.328Z,52.40
2022-08-11T23:57:23.833Z,53.36
